createdAt,value
2019-04-27T00:01:16.837Z,99.90
2019-04-27T00:03:55.075Z,99.90
2019-04-27T00:06:26.037Z,99.90
2019-04-27T00:09:03.518Z,99.90
2019-04-27T00:11:53.221Z,99.90
2019-04-27T00:14:23.961Z,99.90
2019-04-27T00:17:07.031Z,99.90
2019-04-27T00:19:38.621Z,99.90
2019-04-27T00:22:18.601Z,99.90
2019-04-27T00:24:47.947Z,99.90
2019-04-27T00:27:17.492Z,99.90
2019-04-27T00:29:46.819Z,99.90
2019-04-27T00:32:16.320Z,99.90
2019-04-27T00:34:45.651Z,99.90
2019-04-27T00:37:29.924Z,99.90
2019-04-27T00:40:11.205Z,99.90
2019-04-27T00:42:41.254Z,99.90
2019-04-27T00:45:11.024Z,99.90
2019-04-27T00:47:40.364Z,99.90
2019-04-27T00:50:10.796Z,99.90
2019-04-27T00:52:40.116Z,99.90
2019-04-27T00:55:09.521Z,99.90
2019-04-27T00:57:43.556Z,99.90
2019-04-27T01:00:30.144Z,99.90
2019-04-27T01:03:03.940Z,99.90
2019-04-27T01:05:33.833Z,99.90
2019-04-27T01:08:03.818Z,99.90
2019-04-27T01:10:33.531Z,99.90
2019-04-27T01:13:03.393Z,99.90
2019-04-27T01:15:34.273Z,99.90
2019-04-27T01:18:12.361Z,99.90
2019-04-27T01:20:34.965Z,99.90
2019-04-27T01:23:04.283Z,99.90
2019-04-27T01:25:41.853Z,99.90
2019-04-27T01:28:29.054Z,99.90
2019-04-27T01:31:02.922Z,99.90
2019-04-27T01:33:32.256Z,99.90
2019-04-27T01:36:01.598Z,99.90
2019-04-27T01:38:30.921Z,99.90
2019-04-27T01:41:01.009Z,99.90
2019-04-27T01:43:31.139Z,99.90
2019-04-27T01:46:01.109Z,99.90
2019-04-27T01:48:31.599Z,99.90
2019-04-27T01:51:00.917Z,99.90
2019-04-27T01:53:30.432Z,99.90
2019-04-27T01:55:59.948Z,99.90
2019-04-27T01:58:29.434Z,99.90
2019-04-27T02:01:10.533Z,99.90
2019-04-27T02:03:42.052Z,99.90
2019-04-27T02:06:11.445Z,99.90
2019-04-27T02:08:41.383Z,99.90
2019-04-27T02:11:11.053Z,99.90
2019-04-27T02:13:40.508Z,99.90
2019-04-27T02:16:09.867Z,99.90
2019-04-27T02:18:40.071Z,99.90
2019-04-27T02:21:09.654Z,99.90
2019-04-27T02:23:39.347Z,99.90
2019-04-27T02:26:08.901Z,99.90
2019-04-27T02:28:46.344Z,99.90
2019-04-27T02:31:34.013Z,99.90
2019-04-27T02:34:05.748Z,99.90
2019-04-27T02:36:35.550Z,99.90
2019-04-27T02:39:09.282Z,99.90
2019-04-27T02:41:40.027Z,99.90
2019-04-27T02:44:11.353Z,99.90
2019-04-27T02:46:40.714Z,99.90
2019-04-27T02:49:10.669Z,99.90
2019-04-27T02:51:50.942Z,99.90
2019-04-27T02:54:20.564Z,99.90
2019-04-27T02:56:52.845Z,99.90
2019-04-27T02:59:21.093Z,99.90
2019-04-27T03:01:53.457Z,99.90
2019-04-27T03:04:23.084Z,99.90
2019-04-27T03:06:52.482Z,99.90
2019-04-27T03:09:21.801Z,99.90
2019-04-27T03:11:51.594Z,99.90
2019-04-27T03:14:35.811Z,99.90
2019-04-27T03:17:04.177Z,99.90
2019-04-27T03:19:40.859Z,99.90
2019-04-27T03:22:11.828Z,99.90
2019-04-27T03:25:00.232Z,99.90
2019-04-27T03:27:31.661Z,99.90
2019-04-27T03:30:01.746Z,99.90
2019-04-27T03:32:31.742Z,99.90
2019-04-27T03:35:03.405Z,99.90
2019-04-27T03:37:33.154Z,99.90
2019-04-27T03:40:02.843Z,99.90
2019-04-27T03:42:37.128Z,99.90
2019-04-27T03:45:10.480Z,99.90
2019-04-27T03:47:40.932Z,99.90
2019-04-27T03:50:12.941Z,99.90
2019-04-27T03:52:50.100Z,99.90
2019-04-27T03:55:21.280Z,99.90
2019-04-27T03:58:11.826Z,99.90
2019-04-27T04:00:40.386Z,99.90
2019-04-27T04:03:10.652Z,99.90
2019-04-27T04:05:40.219Z,99.90
2019-04-27T04:08:10.712Z,99.90
2019-04-27T04:10:42.038Z,99.90
2019-04-27T04:13:22.234Z,99.90
2019-04-27T04:15:52.679Z,99.90
2019-04-27T04:18:22.362Z,99.90
2019-04-27T04:20:51.701Z,99.90
2019-04-27T04:23:21.088Z,99.90
2019-04-27T04:25:52.051Z,99.90
2019-04-27T04:28:21.376Z,99.90
2019-04-27T04:30:50.717Z,99.90
2019-04-27T04:33:20.799Z,99.90
2019-04-27T04:35:50.354Z,99.90
2019-04-27T04:38:20.712Z,99.90
2019-04-27T04:40:51.810Z,99.90
2019-04-27T04:43:29.445Z,99.90
2019-04-27T04:46:12.723Z,99.90
2019-04-27T04:48:40.438Z,99.90
2019-04-27T04:51:10.662Z,99.90
2019-04-27T04:53:40.620Z,99.90
2019-04-27T04:56:10.717Z,99.90
2019-04-27T04:58:41.380Z,99.90
2019-04-27T05:01:11.229Z,99.90
2019-04-27T05:03:40.558Z,99.90
2019-04-27T05:06:09.884Z,99.90
2019-04-27T05:08:39.432Z,99.90
2019-04-27T05:11:09.642Z,99.90
2019-04-27T05:13:40.327Z,99.90
2019-04-27T05:16:09.652Z,99.90
2019-04-27T05:18:39.443Z,99.90
2019-04-27T05:21:10.532Z,99.90
2019-04-27T05:23:39.869Z,99.90
2019-04-27T05:26:09.308Z,99.90
2019-04-27T05:28:40.620Z,99.90
2019-04-27T05:31:09.723Z,99.90
2019-04-27T05:33:39.035Z,99.90
2019-04-27T05:36:09.149Z,99.90
2019-04-27T05:38:39.858Z,99.90
2019-04-27T05:41:09.917Z,99.90
2019-04-27T05:43:43.640Z,99.90
2019-04-27T05:46:23.838Z,99.90
2019-04-27T05:48:53.160Z,99.90
2019-04-27T05:51:22.495Z,99.90
2019-04-27T05:53:51.814Z,99.90
2019-04-27T05:56:21.621Z,99.90
2019-04-27T05:58:52.036Z,99.90
2019-04-27T06:01:21.456Z,99.90
2019-04-27T06:03:50.811Z,99.90
2019-04-27T06:06:20.190Z,99.90
2019-04-27T06:08:49.597Z,99.90
2019-04-27T06:11:19.747Z,99.90
2019-04-27T06:13:49.327Z,99.90
2019-04-27T06:16:19.495Z,99.90
2019-04-27T06:18:49.380Z,99.90
2019-04-27T06:21:19.566Z,99.90
2019-04-27T06:23:49.093Z,99.90
2019-04-27T06:26:20.182Z,99.90
2019-04-27T06:28:50.497Z,99.90
2019-04-27T06:31:20.049Z,99.90
2019-04-27T06:33:49.828Z,99.90
2019-04-27T06:36:20.118Z,99.90
2019-04-27T06:38:49.442Z,99.90
2019-04-27T06:41:19.012Z,99.90
2019-04-27T06:43:49.497Z,99.90
2019-04-27T06:46:20.712Z,99.90
2019-04-27T06:48:50.068Z,99.90
2019-04-27T06:51:19.684Z,99.90
2019-04-27T06:53:49.459Z,99.90
2019-04-27T06:56:18.848Z,99.90
2019-04-27T06:58:49.180Z,99.90
2019-04-27T07:01:19.079Z,99.90
2019-04-27T07:03:49.459Z,99.90
2019-04-27T07:06:18.824Z,99.90
2019-04-27T07:08:49.848Z,99.90
2019-04-27T07:11:19.807Z,99.90
2019-04-27T07:13:49.798Z,99.90
2019-04-27T07:16:19.709Z,99.90
2019-04-27T07:18:50.468Z,99.90
2019-04-27T07:21:24.713Z,99.90
2019-04-27T07:23:56.751Z,99.90
2019-04-27T07:26:30.254Z,99.90
2019-04-27T07:29:00.985Z,99.90
2019-04-27T07:31:31.852Z,99.90
2019-04-27T07:34:01.528Z,99.90
2019-04-27T07:36:30.913Z,99.90
2019-04-27T07:39:00.248Z,99.90
2019-04-27T07:41:31.200Z,99.90
2019-04-27T07:44:02.755Z,99.90
2019-04-27T07:46:32.982Z,99.90
2019-04-27T07:49:02.301Z,99.90
2019-04-27T07:51:34.322Z,99.90
2019-04-27T07:54:02.663Z,99.90
2019-04-27T07:56:31.992Z,99.90
2019-04-27T07:59:01.315Z,99.90
2019-04-27T08:01:31.661Z,99.90
2019-04-27T08:04:00.984Z,99.90
2019-04-27T08:06:30.404Z,99.90
2019-04-27T08:08:59.801Z,99.90
2019-04-27T08:11:29.352Z,99.90
2019-04-27T08:13:58.981Z,99.90
2019-04-27T08:16:29.025Z,99.90
2019-04-27T08:19:00.009Z,99.90
2019-04-27T08:21:42.825Z,99.90
2019-04-27T08:24:01.681Z,99.90
2019-04-27T08:26:32.728Z,99.90
2019-04-27T08:29:03.710Z,99.90
2019-04-27T08:31:43.940Z,99.90
2019-04-27T08:34:15.532Z,99.90
2019-04-27T08:36:44.869Z,99.90
2019-04-27T08:39:14.200Z,99.90
2019-04-27T08:41:43.525Z,99.90
2019-04-27T08:44:12.851Z,99.90
2019-04-27T08:46:43.324Z,99.30
2019-04-27T08:49:12.655Z,97.70
2019-04-27T08:51:41.994Z,96.30
2019-04-27T08:54:11.316Z,96.40
2019-04-27T08:56:40.643Z,95.70
2019-04-27T08:59:09.965Z,97.70
2019-04-27T09:01:39.704Z,98.10
2019-04-27T09:04:11.258Z,99.50
2019-04-27T09:06:41.966Z,99.70
2019-04-27T09:09:26.262Z,99.90
2019-04-27T09:12:00.145Z,99.90
2019-04-27T09:14:31.133Z,99.50
2019-04-27T09:17:09.612Z,99.90
2019-04-27T09:19:56.130Z,99.30
2019-04-27T09:22:25.460Z,97.20
2019-04-27T09:24:54.784Z,95.70
2019-04-27T09:27:24.099Z,93.90
2019-04-27T09:29:53.413Z,95.00
2019-04-27T09:32:22.751Z,93.80
2019-04-27T09:34:52.084Z,93.00
2019-04-27T09:37:21.412Z,91.20
2019-04-27T09:39:50.817Z,92.60
2019-04-27T09:42:20.131Z,94.10
2019-04-27T09:44:50.084Z,94.90
2019-04-27T09:47:21.545Z,95.10
2019-04-27T09:49:50.889Z,96.20
2019-04-27T09:52:26.289Z,97.90
2019-04-27T09:54:51.295Z,97.60
2019-04-27T09:57:20.623Z,98.20
2019-04-27T09:59:50.024Z,99.20
2019-04-27T10:02:19.459Z,99.10
2019-04-27T10:04:48.843Z,97.50
2019-04-27T10:07:18.327Z,97.80
2019-04-27T10:09:47.675Z,98.30
2019-04-27T10:12:18.888Z,98.60
2019-04-27T10:14:48.207Z,99.40
2019-04-27T10:17:17.532Z,98.60
2019-04-27T10:19:46.851Z,99.00
2019-04-27T10:22:16.217Z,98.70
2019-04-27T10:24:45.580Z,99.30
2019-04-27T10:27:16.109Z,99.50
2019-04-27T10:29:46.875Z,99.90
2019-04-27T10:32:16.357Z,99.90
2019-04-27T10:34:45.784Z,99.90
2019-04-27T10:37:16.217Z,99.90
2019-04-27T10:39:46.010Z,99.60
2019-04-27T10:42:15.755Z,99.80
2019-04-27T10:44:46.185Z,99.60
2019-04-27T10:47:16.651Z,99.70
2019-04-27T10:49:47.976Z,99.90
2019-04-27T10:52:18.185Z,99.80
2019-04-27T10:54:47.674Z,99.80
2019-04-27T10:57:16.997Z,99.80
2019-04-27T10:59:46.404Z,99.90
2019-04-27T11:02:15.727Z,99.90
2019-04-27T11:04:56.551Z,99.90
2019-04-27T11:07:28.841Z,99.90
2019-04-27T11:09:58.166Z,99.90
2019-04-27T11:12:27.582Z,99.90
2019-04-27T11:14:56.904Z,99.50
2019-04-27T11:17:26.697Z,99.80
2019-04-27T11:19:56.223Z,99.90
2019-04-27T11:22:26.043Z,99.90
2019-04-27T11:24:56.538Z,99.70
2019-04-27T11:27:25.844Z,99.90
2019-04-27T11:29:56.432Z,99.90
2019-04-27T11:32:25.883Z,99.90
2019-04-27T11:35:08.909Z,99.90
2019-04-27T11:37:39.417Z,99.90
2019-04-27T11:40:10.629Z,99.90
2019-04-27T11:42:40.697Z,99.90
2019-04-27T11:45:11.561Z,99.90
2019-04-27T11:47:40.898Z,99.90
2019-04-27T11:50:13.640Z,99.90
2019-04-27T11:52:42.992Z,99.90
2019-04-27T11:55:12.747Z,99.90
2019-04-27T11:57:42.078Z,99.90
2019-04-27T12:00:14.181Z,99.90
2019-04-27T12:02:43.535Z,99.90
2019-04-27T12:05:13.497Z,99.90
2019-04-27T12:07:47.232Z,99.90
2019-04-27T12:10:15.856Z,99.90
2019-04-27T12:12:46.780Z,99.90
2019-04-27T12:15:16.843Z,99.90
2019-04-27T12:17:46.292Z,99.90
2019-04-27T12:20:17.949Z,99.90
2019-04-27T12:22:47.508Z,99.90
2019-04-27T12:25:17.067Z,99.90
2019-04-27T12:27:57.853Z,99.90
2019-04-27T12:30:28.839Z,99.90
2019-04-27T12:32:58.218Z,99.90
2019-04-27T12:35:27.535Z,99.90
2019-04-27T12:37:56.857Z,99.90
2019-04-27T12:40:26.853Z,99.90
2019-04-27T12:42:57.215Z,99.90
2019-04-27T12:45:26.779Z,99.90
2019-04-27T12:47:56.698Z,99.90
2019-04-27T12:50:28.763Z,99.90
2019-04-27T12:53:14.841Z,99.90
2019-04-27T12:55:51.448Z,99.90
2019-04-27T12:58:26.506Z,99.90
2019-04-27T13:01:00.319Z,99.90
2019-04-27T13:03:29.636Z,99.90
2019-04-27T13:05:58.956Z,99.90
2019-04-27T13:08:28.285Z,99.90
2019-04-27T13:10:57.616Z,99.90
2019-04-27T13:13:27.778Z,99.90
2019-04-27T13:15:57.169Z,99.90
2019-04-27T13:18:27.460Z,99.90
2019-04-27T13:20:56.801Z,99.90
2019-04-27T13:23:26.118Z,99.90
2019-04-27T13:25:56.480Z,99.90
2019-04-27T13:28:26.081Z,99.90
2019-04-27T13:30:55.960Z,99.90
2019-04-27T13:33:26.309Z,99.90
2019-04-27T13:35:55.729Z,99.90
2019-04-27T13:38:26.687Z,99.90
2019-04-27T13:41:00.881Z,99.90
2019-04-27T13:43:32.152Z,99.90
2019-04-27T13:46:12.172Z,99.90
2019-04-27T13:48:59.708Z,99.90
2019-04-27T13:51:31.889Z,99.90
2019-04-27T13:54:14.087Z,99.90
2019-04-27T13:56:34.672Z,99.90
2019-04-27T13:59:05.478Z,99.90
2019-04-27T14:01:35.501Z,99.90
2019-04-27T14:04:06.863Z,99.90
2019-04-27T14:06:36.121Z,99.90
2019-04-27T14:09:09.199Z,99.90
2019-04-27T14:11:39.574Z,99.90
2019-04-27T14:14:10.037Z,99.90
2019-04-27T14:16:39.365Z,99.90
2019-04-27T14:19:11.020Z,99.90
2019-04-27T14:21:40.516Z,99.90
2019-04-27T14:24:09.833Z,99.90
2019-04-27T14:26:39.164Z,99.90
2019-04-27T14:29:08.880Z,99.90
2019-04-27T14:31:39.756Z,99.90
2019-04-27T14:34:09.293Z,99.90
2019-04-27T14:36:40.647Z,99.90
2019-04-27T14:39:11.597Z,99.90
2019-04-27T14:41:42.204Z,99.90
2019-04-27T14:44:11.576Z,99.90
2019-04-27T14:46:40.904Z,99.90
2019-04-27T14:49:10.216Z,99.90
2019-04-27T14:51:40.335Z,99.90
2019-04-27T14:54:10.660Z,99.90
2019-04-27T14:56:39.976Z,99.90
2019-04-27T14:59:09.293Z,99.90
2019-04-27T15:01:40.083Z,99.90
2019-04-27T15:04:09.512Z,99.90
2019-04-27T15:06:40.464Z,99.90
2019-04-27T15:09:13.429Z,99.90
2019-04-27T15:11:40.813Z,99.90
2019-04-27T15:14:10.127Z,99.90
2019-04-27T15:16:42.608Z,99.90
2019-04-27T15:19:17.660Z,99.90
2019-04-27T15:21:57.784Z,99.90
2019-04-27T15:24:18.301Z,99.90
2019-04-27T15:26:47.645Z,99.90
2019-04-27T15:29:20.585Z,99.90
2019-04-27T15:31:55.880Z,99.90
2019-04-27T15:34:36.942Z,99.90
2019-04-27T15:37:08.544Z,99.90
2019-04-27T15:39:57.839Z,99.90
2019-04-27T15:42:28.475Z,99.90
2019-04-27T15:44:58.515Z,99.90
2019-04-27T15:47:28.561Z,99.90
2019-04-27T15:49:58.990Z,99.90
2019-04-27T15:52:33.172Z,99.90
2019-04-27T15:55:02.867Z,99.90
2019-04-27T15:57:32.732Z,99.90
2019-04-27T16:00:02.053Z,99.90
2019-04-27T16:02:31.380Z,99.90
2019-04-27T16:05:00.694Z,99.90
2019-04-27T16:07:32.159Z,99.90
2019-04-27T16:10:02.605Z,99.90
2019-04-27T16:12:34.543Z,99.90
2019-04-27T16:15:05.211Z,99.90
2019-04-27T16:17:35.707Z,99.90
2019-04-27T16:20:06.590Z,99.90
2019-04-27T16:22:36.991Z,99.90
2019-04-27T16:25:08.345Z,99.90
2019-04-27T16:27:38.463Z,99.90
2019-04-27T16:30:12.816Z,99.90
2019-04-27T16:32:44.605Z,99.90
2019-04-27T16:35:13.977Z,99.90
2019-04-27T16:38:01.361Z,99.90
2019-04-27T16:40:30.719Z,99.90
2019-04-27T16:43:00.053Z,99.90
2019-04-27T16:45:29.428Z,99.90
2019-04-27T16:47:59.879Z,99.90
2019-04-27T16:50:29.774Z,99.90
2019-04-27T16:53:01.074Z,99.90
2019-04-27T16:55:34.247Z,99.90
2019-04-27T16:58:03.708Z,99.90
2019-04-27T17:00:33.565Z,99.90
2019-04-27T17:03:05.075Z,99.90
2019-04-27T17:08:05.881Z,99.90
2019-04-27T17:10:35.289Z,99.90
2019-04-27T17:12:41.266Z,99.90
2019-04-27T17:13:06.143Z,99.90
2019-04-27T17:15:55.048Z,99.90
2019-04-27T17:18:26.274Z,99.90
2019-04-27T17:21:00.933Z,99.90
2019-04-27T17:23:31.147Z,99.90
2019-04-27T17:26:05.986Z,99.90
2019-04-27T17:28:50.881Z,99.90
2019-04-27T17:31:23.535Z,99.90
2019-04-27T17:33:58.622Z,99.90
2019-04-27T17:36:29.465Z,99.90
2019-04-27T17:38:58.782Z,99.90
2019-04-27T17:41:28.366Z,99.90
2019-04-27T17:43:59.072Z,99.90
2019-04-27T17:46:28.627Z,99.90
2019-04-27T17:48:59.999Z,99.90
2019-04-27T17:51:30.827Z,99.90
2019-04-27T17:54:07.041Z,99.90
2019-04-27T17:56:36.186Z,99.90
2019-04-27T17:59:04.876Z,99.90
2019-04-27T18:01:34.200Z,99.90
2019-04-27T18:04:06.303Z,99.90
2019-04-27T18:06:34.700Z,99.90
2019-04-27T18:09:08.272Z,99.90
2019-04-27T18:11:38.481Z,99.90
2019-04-27T18:14:11.167Z,99.90
2019-04-27T18:16:39.108Z,99.90
2019-04-27T18:19:18.408Z,99.90
2019-04-27T18:22:00.865Z,99.90
2019-04-27T18:24:33.727Z,99.90
2019-04-27T18:27:18.352Z,99.90
2019-04-27T18:29:48.587Z,99.90
2019-04-27T18:32:19.095Z,99.90
2019-04-27T18:34:49.345Z,99.90
2019-04-27T18:37:24.484Z,99.90
2019-04-27T18:39:54.812Z,99.90
2019-04-27T18:42:23.243Z,99.90
2019-04-27T18:44:52.557Z,99.90
2019-04-27T18:47:21.956Z,99.90
2019-04-27T18:50:07.434Z,99.90
2019-04-27T18:52:42.401Z,99.90
2019-04-27T18:55:11.442Z,99.90
2019-04-27T18:57:41.303Z,99.90
2019-04-27T19:00:12.698Z,99.90
2019-04-27T19:02:42.104Z,99.90
2019-04-27T19:05:11.483Z,99.90
2019-04-27T19:07:41.068Z,99.90
2019-04-27T19:10:10.922Z,99.90
2019-04-27T19:12:40.357Z,99.90
2019-04-27T19:15:10.034Z,99.90
2019-04-27T19:17:39.701Z,99.90
2019-04-27T19:20:10.491Z,99.90
2019-04-27T19:22:40.062Z,99.90
2019-04-27T19:25:11.929Z,99.90
2019-04-27T19:27:55.040Z,99.90
2019-04-27T19:30:27.950Z,99.90
2019-04-27T19:32:57.040Z,99.90
2019-04-27T19:35:26.361Z,99.90
2019-04-27T19:37:55.684Z,99.90
2019-04-27T19:40:25.000Z,99.90
2019-04-27T19:42:54.768Z,99.90
2019-04-27T19:45:24.083Z,99.90
2019-04-27T19:47:53.468Z,99.90
2019-04-27T19:50:22.791Z,99.90
2019-04-27T19:52:52.112Z,99.90
2019-04-27T19:55:22.816Z,99.90
2019-04-27T19:57:52.131Z,99.90
2019-04-27T20:00:39.800Z,99.90
2019-04-27T20:03:11.124Z,99.90
2019-04-27T20:05:40.599Z,99.90
2019-04-27T20:08:11.644Z,99.90
2019-04-27T20:10:43.117Z,99.90
2019-04-27T20:13:12.056Z,99.90
2019-04-27T20:15:42.997Z,99.90
2019-04-27T20:18:12.821Z,99.90
2019-04-27T20:20:42.132Z,99.90
2019-04-27T20:23:11.443Z,99.90
2019-04-27T20:25:41.275Z,99.90
2019-04-27T20:28:12.047Z,99.90
2019-04-27T20:30:41.689Z,99.90
2019-04-27T20:33:11.652Z,99.90
2019-04-27T20:35:42.688Z,99.90
2019-04-27T20:38:12.868Z,99.90
2019-04-27T20:40:42.311Z,99.90
2019-04-27T20:43:11.696Z,99.90
2019-04-27T20:45:41.405Z,99.90
2019-04-27T20:48:11.181Z,99.90
2019-04-27T20:50:41.277Z,99.90
2019-04-27T20:53:21.270Z,99.90
2019-04-27T20:55:50.973Z,99.90
2019-04-27T20:58:21.220Z,99.90
2019-04-27T21:00:51.801Z,99.90
2019-04-27T21:03:22.857Z,99.90
2019-04-27T21:06:11.169Z,99.90
2019-04-27T21:08:43.689Z,99.90
2019-04-27T21:11:13.019Z,99.90
2019-04-27T21:13:42.323Z,99.90
2019-04-27T21:16:12.582Z,99.90
2019-04-27T21:18:42.109Z,99.90
2019-04-27T21:21:11.674Z,99.90
2019-04-27T21:23:41.555Z,99.90
2019-04-27T21:26:11.081Z,99.90
2019-04-27T21:28:41.574Z,99.90
2019-04-27T21:31:12.779Z,99.90
2019-04-27T21:33:42.308Z,99.90
2019-04-27T21:36:11.852Z,99.90
2019-04-27T21:38:42.898Z,99.90
2019-04-27T21:41:12.501Z,99.90
2019-04-27T21:43:43.810Z,99.90
2019-04-27T21:46:13.303Z,99.90
2019-04-27T21:48:43.103Z,99.90
2019-04-27T21:51:12.524Z,99.90
2019-04-27T21:53:55.716Z,99.90
2019-04-27T21:56:27.730Z,99.90
2019-04-27T21:58:57.063Z,99.90
2019-04-27T22:01:31.860Z,99.90
2019-04-27T22:04:04.015Z,99.90
2019-04-27T22:06:33.366Z,99.90
2019-04-27T22:09:02.689Z,99.90
2019-04-27T22:11:33.629Z,99.90
2019-04-27T22:14:05.752Z,99.90
2019-04-27T22:16:34.954Z,99.90
2019-04-27T22:19:04.507Z,99.90
2019-04-27T22:21:33.825Z,99.90
2019-04-27T22:24:13.993Z,99.90
2019-04-27T22:26:44.794Z,99.90
2019-04-27T22:29:14.115Z,99.90
2019-04-27T22:31:43.450Z,99.90
2019-04-27T22:34:12.759Z,99.90
2019-04-27T22:36:42.091Z,99.90
2019-04-27T22:39:15.852Z,99.90
2019-04-27T22:41:51.590Z,99.90
2019-04-27T22:44:22.602Z,99.90
2019-04-27T22:46:53.804Z,99.90
2019-04-27T22:49:23.129Z,99.90
2019-04-27T22:51:53.412Z,99.90
2019-04-27T22:54:22.740Z,99.90
2019-04-27T22:56:54.297Z,99.90
2019-04-27T22:59:27.933Z,99.90
2019-04-27T23:01:58.918Z,99.90
2019-04-27T23:04:42.144Z,99.90
2019-04-27T23:07:11.491Z,99.90
2019-04-27T23:09:42.873Z,99.90
2019-04-27T23:12:13.633Z,99.90
2019-04-27T23:14:42.957Z,99.90
2019-04-27T23:17:16.629Z,99.90
2019-04-27T23:19:46.020Z,99.90
2019-04-27T23:22:15.398Z,99.90
2019-04-27T23:24:44.788Z,99.90
2019-04-27T23:27:15.423Z,99.90
2019-04-27T23:29:44.902Z,99.90
2019-04-27T23:32:15.868Z,99.90
2019-04-27T23:34:45.227Z,99.90
2019-04-27T23:37:14.569Z,99.90
2019-04-27T23:39:43.892Z,99.90
2019-04-27T23:42:13.209Z,99.90
2019-04-27T23:44:42.535Z,99.90
2019-04-27T23:47:13.278Z,99.90
2019-04-27T23:49:42.669Z,99.90
2019-04-27T23:52:16.414Z,99.90
2019-04-27T23:54:45.832Z,99.90
2019-04-27T23:57:16.028Z,99.90
2019-04-27T23:59:45.357Z,99.90
